ROMMA est une association bénévole à but non lucratif. Votre soutien est indispensable : ADHERER à ROMMA ou FAIRE un DON

Le Versoud - (38, Isère)

Vallée du Grésivaudan (220 m)   Longitude: 05° 51' 44" E   Latitude: 45° 13' 06" N Station partenaire n°6
 

Détail journalier du     <<     >>

Température Humidité Pression Vent Dir Rafale Dir. rafale Ensol.
Heure (°C) (%) (hPa) (km/h) (km/h) (min)
01:00 13.696101500---0
02:00 13.596101500---0
03:00 13.696101500---0
04:00 13.497101500---0
05:00 13.497101500---0
06:00 13.497101500---0
07:00 13.297101500---0
08:00 12.897101600---0
09:00 13.097101600---0
10:00 13.397101700---0
11:00 14.797101700---5
12:00 17.184101700---35
13:00 18.377101600---45
14:00 19.274101500---60
15:00 20.469101500---60
16:00 19.974101500---35
17:00 18.183101602E20
18:00 16.888101600---0
19:00 16.487101706ESE0
20:00 15.891101700---0
21:00 15.690101800---0
22:00 15.290101800---0
23:00 15.191101800---0
minuit 14.990101800---0

Graphique du 29-10-2019

 

Serveur OMMA